^^

Nearby METAR Reports

 

EGNV - Tees-Side, United Kingdom
Distance from station: SW 7mi, 11km
Updated: 25/02/2020 14:20
Few Clouds
Few Clouds
 Wind from W
Wind: W 12 mph , 19 km/h
Temperature: 6°C
Wind Chill: 3°C
Dew Point: 0°C
Humidity: 66%
Barometer: 992 hPa
Clouds: Few Clouds
Visibility: 6 miles , 10 km
Cloud details: Few Clouds 792 m
2020/02/25 14:20 EGNV 251420Z 27010KT 9999 FEW026 06/00 Q0992
EGXE - Leeming Raf, United Kingdom
Distance from station: SSW 23mi, 37km
Updated: 25/02/2020 14:20
Mostly cloudy
Mostly cloudy
 Wind from W
Wind: W 15 mph , 24 km/h
Temperature: 6°C
Wind Chill: 2°C
Dew Point: 0°C
Humidity: 66%
Barometer: 992 hPa
Clouds: Mostly cloudy
Visibility: 6 miles , 10 km
Cloud details: Few Clouds 549 m
Mostly cloudy 7620 m
2020/02/25 14:20 EGXE 251420Z 26013KT 9999 FEW018CB BKN250 06/M00 Q0992 TEMPO SCT020 RMK BLU TEMPO WHT
 
EGXZ - Topcliffe Raf, United Kingdom
Distance from station: S 27mi, 43km
Updated: 25/02/2020 13:50
Clear
Clear
 Wind from W
Wind: W 14 mph , 22 km/h
Temperature: 6°C
Wind Chill: 2°C
Dew Point: 1°C
Humidity: 71%
Barometer: 993 hPa
Clouds: Clear
Visibility: 6 miles , 10 km
2020/02/25 13:50 EGXZ 251350Z AUTO 27012KT 9999 NCD 06/01 Q0993
EGNT - Newcastle, United Kingdom
Distance from station: NNW 34mi, 54km
Updated: 25/02/2020 14:20
Partly cloudy
Partly cloudy
 Wind from WNW
Wind: WNW 10 mph , 17 km/h
Temperature: 7°C
Wind Chill: 4°C
Dew Point: 2°C
Humidity: 71%
Barometer: 991 hPa
Clouds: Partly cloudy
Visibility: 6 miles , 10 km
Cloud details: Partly cloudy 610 m
2020/02/25 14:20 EGNT 251420Z 29009KT 250V330 9999 SCT020 07/02 Q0991
 
EGXU - Linton-On-Ouse R, United Kingdom
Distance from station: S 37mi, 60km
Updated: 25/02/2020 14:20
Partly cloudy
Partly cloudy
 Wind from W
Wind: W 13 mph , 20 km/h
Temperature: 7°C
Wind Chill: 4°C
Dew Point: 2°C
Humidity: 71%
Barometer: 993 hPa
Clouds: Partly cloudy
Visibility: 6 miles , 10 km
Cloud details: Few Clouds 671 m
Partly cloudy 1219 m
2020/02/25 14:20 EGXU 251420Z 26011KT 9999 FEW022 SCT040 07/02 Q0993 RMK BLU
EGNM - Leeds And Bradfo, United Kingdom
Distance from station: SSW 52mi, 83km
Updated: 25/02/2020 14:20
Light rain, Showers, Snow, Partly cloudy
Light rain, Showers, Snow, Partly cloudy
 Wind from SW
Wind: SW 15 mph , 24 km/h
Temperature: 3°C
Wind Chill: -2°C
Dew Point: 2°C
Humidity: 93%
Barometer: 993 hPa
Summary: Light rain, Showers, Snow
Clouds: Partly cloudy
Visibility: 6 miles , 10 km
Cloud details: Partly cloudy 457 m
Partly cloudy 610 m
2020/02/25 14:20 EGNM 251420Z 22013KT 9999 -SHRASN SCT015CB SCT020 03/02 Q0993
 
EGOM - Spadeadam, United Kingdom
Distance from station: WNW 58mi, 94km
Updated: 25/02/2020 13:50
Partly cloudy
Partly cloudy
 Wind from WSW
Wind: WSW 16 mph , 26 km/h
Temperature: 3°C
Wind Chill: -2°C
Dew Point: 1°C
Humidity: 87%
Barometer: 990 hPa
Clouds: Partly cloudy
Visibility: 6 miles , 10 km
Cloud details: Partly cloudy 518 m
Few Clouds 732 m
Partly cloudy 823 m
2020/02/25 13:50 EGOM 251350Z 25014KT 9999 SCT017 FEW024CB SCT027 03/01 Q0990 WHT
EGCN - Doncaster Sheffi, United Kingdom
Distance from station: S 77mi, 124km
Updated: 25/02/2020 14:20
Nearby showers, Mostly cloudy
Nearby showers, Mostly cloudy
 Wind from WNW
Wind: WNW 12 mph , 19 km/h
Temperature: 6°C
Wind Chill: 3°C
Dew Point: 2°C
Humidity: 76%
Barometer: 995 hPa
Summary: Nearby Showers
Clouds: Mostly cloudy
Visibility: 6 miles , 10 km
Cloud details: Few Clouds 792 m
Mostly cloudy 1128 m
2020/02/25 14:20 EGCN 251420Z 30010KT 250V320 9999 VCSH FEW026 BKN037 06/02 Q0995
 
EGNJ - Humberside, United Kingdom
Distance from station: SSE 80mi, 129km
Updated: 25/02/2020 14:20
Nearby showers, Partly cloudy
Nearby showers, Partly cloudy
 Wind from WSW
Wind: WSW 18 mph , 30 km/h
Temperature: 8°C
Wind Chill: 4°C
Dew Point: 2°C
Humidity: 66%
Barometer: 994 hPa
Summary: Nearby Showers
Clouds: Partly cloudy
Visibility: 6 miles , 10 km
Cloud details: Few Clouds 488 m
Few Clouds 610 m
Partly cloudy 853 m
2020/02/25 14:20 EGNJ 251420Z 25016KT 9999 VCSH FEW016 FEW020CB SCT028 08/02 Q0994
EGNH - Blackpool Airpor, United Kingdom
Distance from station: SW 90mi, 145km
Updated: 25/02/2020 14:20
Nearby showers, Partly cloudy
Nearby showers, Partly cloudy
 Wind from WNW
Wind: WNW 17 mph , 28 km/h
Temperature: 6°C
Wind Chill: 2°C
Dew Point: 3°C
Humidity: 81%
Barometer: 994 hPa
Summary: Nearby Showers
Clouds: Partly cloudy
Visibility: 6 miles , 10 km
Cloud details: Few Clouds 244 m
Partly cloudy 610 m
2020/02/25 14:20 EGNH 251420Z 30015KT 9999 VCSH FEW008 SCT020CB 06/03 Q0994
 
EGXP - Scampton Raf, United Kingdom
Distance from station: SSE 94mi, 151km
Updated: 25/02/2020 13:50
Nearby showers, Partly cloudy
Nearby showers, Partly cloudy
 Wind from W
Wind: W 14 mph , 22 km/h
Temperature: 6°C
Wind Chill: 2°C
Dew Point: 1°C
Humidity: 71%
Barometer: 994 hPa
Summary: Nearby Showers
Clouds: Partly cloudy
Visibility: 6 miles , 10 km
Cloud details: Few Clouds 1524 m
Partly cloudy 3962 m
2020/02/25 13:50 EGXP 251350Z 28012KT 9999 VCSH FEW050CB SCT130 06/01 Q0994 RMK BLU
EGCC - Manchester Intl, United Kingdom
Distance from station: SSW 94mi, 152km
Updated: 25/02/2020 14:20
Mostly cloudy
Mostly cloudy
 Wind from W
Wind: W 8 mph , 13 km/h
Temperature: 4°C
Wind Chill: 1°C
Dew Point: 2°C
Humidity: 87%
Barometer: 994 hPa
Clouds: Mostly cloudy
Visibility: 6 miles , 10 km
Cloud details: Few Clouds 457 m
Partly cloudy 823 m
Mostly cloudy 1097 m
2020/02/25 14:20 EGCC 251420Z 28007KT 250V320 9999 FEW015CB SCT027 BKN036 04/02 Q0994 RERA